Terminal Aerodrome Forecast
Issued by NWS

Home | Current Version | Previous Version | Text Only | Print | Product List | Glossary On
Versions: 1 2 3 4 5 6 7 8 9 10 11 12 13 14 15 16 17 18 19 20 21 22 23 24 25 26 27 28 29 30 31 32 33 34
409
FTUS41 KBOX 211735
TAFHYA
TAF
KHYA 211735Z 2118/2218 22009KT P6SM SCT009 BKN080
     FM212300 24008KT P6SM SCT250
     FM220200 25006KT 4SM BR SCT250
     FM221100 00000KT 5SM BR BKN150=

USA.gov is the U.S. government's official web portal to all federal, state and local government web resources and services.